Ackerly, Texas
Current Conditions -  °F | °C
As of 2:15 PM on Saturday 25 Oct 2014 (Local Time) from KBPG Reporting Station
Clear Clear  
Wind Chill: 84°   Ceiling: Unl
Heat Index: 84°   Visibility: 10mi
Dew Point: 50°   Wind: 8mph
Humidity: 30%   Direction: 170°S
Pressure: 30.17"   Gusts: NA
Location:  32.53°N, 101.72°W
Report Text: KBPG 251915Z AUTO 17007KT 10SM CLR 29/10 A3017 RMK AO2 T02900099
Loading
Personal Weather Stations






























Interactive Weather Map
Tropical Storm Tracking
New forecast layout! Learn more

10-Day Weather Forecast

Advertisements
Track Severe Weather on mobile